Time;durP1;ratioP1;P1;durP2;ratioP2;P2;SDS_P1;SDS_P2;PMS_P1;PMS_P2;Temp;Humidity;BMP_temperature;BMP_pressure;BME280_temperature;BME280_humidity;BME280_pressure;Samples;Min_cycle;Max_cycle;Signal;HPM_P1;HPM_P2
2023/12/05 00:00:21;;;;;;;;;;;;;;;-1.51;100.00;99914.88;4965800;28;20541;-73
2023/12/05 00:02:46;;;;;;;25.17;11.17;;;;;;;-1.33;100.00;99939.81;4966522;28;20432;-73
2023/12/05 00:05:12;;;;;;;23.48;11.75;;;;;;;-1.43;100.00;99915.19;4966196;28;20058;-74
2023/12/05 00:07:38;;;;;;;26.75;12.00;;;;;;;-1.38;100.00;99928.81;4952451;28;20093;-75
2023/12/05 00:10:05;;;;;;;22.20;10.77;;;;;;;-1.40;100.00;99933.31;4952963;28;20065;-75
2023/12/05 00:12:30;;;;;;;26.30;12.68;;;;;;;-1.45;100.00;99904.00;4951021;28;20039;-75
2023/12/05 00:14:56;;;;;;;25.05;10.40;;;;;;;-1.57;100.00;99883.88;4970187;28;20544;-75
2023/12/05 00:17:21;;;;;;;24.50;12.35;;;;;;;-1.57;100.00;99881.25;4968464;28;20134;-73
2023/12/05 00:19:46;;;;;;;27.98;12.30;;;;;;;-1.52;100.00;99910.59;4965673;28;20031;-73
2023/12/05 00:22:12;;;;;;;20.80;9.93;;;;;;;-1.64;100.00;99877.41;4964617;28;20030;-74
2023/12/05 00:24:37;;;;;;;22.52;9.85;;;;;;;-1.50;100.00;99908.69;4951983;28;20054;-74
2023/12/05 00:27:02;;;;;;;23.42;10.40;;;;;;;-1.53;100.00;99895.81;4949406;28;20038;-75
2023/12/05 00:29:28;;;;;;;22.33;11.25;;;;;;;-1.57;100.00;99869.03;4966444;28;20093;-75
2023/12/05 00:32:02;;;;;;;19.70;10.70;;;;;;;-1.53;100.00;99864.41;4968364;28;20142;-74
2023/12/05 00:34:28;;;;;;;19.40;10.02;;;;;;;-1.46;100.00;99877.91;4969665;28;20042;-75
2023/12/05 00:36:53;;;;;;;21.50;10.18;;;;;;;-1.47;100.00;99871.03;4968343;28;20027;-75
2023/12/05 00:39:19;;;;;;;;;;;;;;;-1.54;100.00;99854.91;4965874;28;20035;-74
2023/12/05 00:41:44;;;;;;;22.85;12.00;;;;;;;-1.57;100.00;99849.84;4961286;28;19920;-75
2023/12/05 00:44:09;;;;;;;25.08;11.30;;;;;;;-1.59;100.00;99865.69;4952106;28;20047;-74
2023/12/05 00:46:35;;;;;;;;;;;;;;;-1.74;100.00;99840.56;4968654;28;20029;-75
2023/12/05 00:49:00;;;;;;;22.77;11.47;;;;;;;-1.60;100.00;99892.78;4969732;28;20490;-75
2023/12/05 00:51:25;;;;;;;23.58;11.07;;;;;;;-1.60;100.00;99881.47;4968149;28;20046;-74
2023/12/05 00:53:50;;;;;;;;;;;;;;;-1.61;100.00;99866.75;4969863;28;20084;-75
2023/12/05 00:56:17;;;;;;;25.87;11.63;;;;;;;-1.58;100.00;99883.06;4969437;28;20282;-72
2023/12/05 00:58:43;;;;;;;24.05;10.82;;;;;;;-1.74;100.00;99851.84;4968284;28;20067;-75
2023/12/05 01:01:08;;;;;;;25.42;10.27;;;;;;;-1.67;100.00;99891.53;4952059;28;20628;-74
2023/12/05 01:03:33;;;;;;;26.17;11.85;;;;;;;-1.83;100.00;99854.28;4950297;28;20442;-75
2023/12/05 01:05:59;;;;;;;21.88;11.05;;;;;;;-1.65;100.00;99899.28;4969444;28;20446;-75
2023/12/05 01:08:24;;;;;;;25.48;10.40;;;;;;;-1.81;100.00;99889.84;4951808;28;20405;-74
2023/12/05 01:10:49;;;;;;;27.45;11.88;;;;;;;-1.71;100.00;99917.09;4969310;28;20045;-75
2023/12/05 01:13:15;;;;;;;;;;;;;;;-1.82;100.00;99898.66;4952097;28;20082;-75
2023/12/05 01:15:43;;;;;;;27.65;12.60;;;;;;;-1.75;100.00;99925.25;4967104;28;20731;-75
2023/12/05 01:18:13;;;;;;;24.17;11.13;;;;;;;-1.76;100.00;99947.94;4967856;28;20039;-75
2023/12/05 01:20:38;;;;;;;25.30;13.02;;;;;;;-1.86;100.00;99946.91;4969051;28;20060;-75
2023/12/05 01:23:04;;;;;;;23.08;11.88;;;;;;;-1.86;100.00;99954.75;4965273;28;20478;-73
2023/12/05 01:25:29;;;;;;;24.38;11.27;;;;;;;-1.75;100.00;99970.56;4965698;28;20121;-75
2023/12/05 01:27:54;;;;;;;;;;;;;;;-1.72;100.00;99961.69;4968072;28;20039;-75
2023/12/05 01:30:20;;;;;;;21.75;10.80;;;;;;;-1.94;100.00;99915.19;4968757;28;19917;-75
2023/12/05 01:32:48;;;;;;;;;;;;;;;-1.79;100.00;99953.41;4969036;28;20026;-76
2023/12/05 01:35:16;;;;;;;26.63;11.38;;;;;;;-1.77;100.00;99950.69;4979372;28;20349;-74
2023/12/05 01:37:42;;;;;;;27.20;11.95;;;;;;;-1.79;100.00;99945.56;4951136;28;20090;-74
2023/12/05 01:40:09;;;;;;;;;;;;;;;-1.80;100.00;99954.34;4969217;28;20491;-75
2023/12/05 01:42:38;;;;;;;25.20;12.18;;;;;;;-1.87;100.00;99937.38;4968412;28;19910;-75
2023/12/05 01:45:07;;;;;;;24.25;11.45;;;;;;;-1.87;100.00;99942.63;4968365;28;20026;-75
2023/12/05 01:47:35;;;;;;;22.02;10.82;;;;;;;-1.75;100.00;99972.38;4967083;28;20027;-75
2023/12/05 01:50:03;;;;;;;29.10;11.25;;;;;;;-1.75;100.00;99960.09;4967264;28;20050;-75
2023/12/05 01:52:30;;;;;;;26.50;12.88;;;;;;;-1.92;100.00;99919.38;4950868;28;20600;-75
2023/12/05 01:54:55;;;;;;;28.20;11.45;;;;;;;-1.89;100.00;99913.09;4951046;28;20030;-74
2023/12/05 01:57:24;;;;;;;23.80;12.05;;;;;;;-1.78;100.00;99935.91;4968165;28;20031;-74
2023/12/05 01:59:52;;;;;;;26.05;12.40;;;;;;;-1.90;100.00;99893.09;4960962;28;20031;-74
2023/12/05 02:02:18;;;;;;;27.30;12.43;;;;;;;-1.88;100.00;99893.00;4962817;28;20118;-75
2023/12/05 02:04:44;;;;;;;;;;;;;;;-1.84;100.00;99884.84;4967086;28;20057;-76
2023/12/05 02:07:11;;;;;;;26.52;11.32;;;;;;;-1.92;100.00;99866.19;4954595;28;20361;-74
2023/12/05 02:09:37;;;;;;;26.45;13.32;;;;;;;-1.82;100.00;99892.59;4958197;28;20039;-72
2023/12/05 02:12:03;;;;;;;32.05;14.15;;;;;;;-1.96;100.00;99859.53;4961078;28;20031;-75
2023/12/05 02:14:29;;;;;;;23.25;10.30;;;;;;;-1.83;100.00;99891.72;4954672;28;20033;-75
2023/12/05 02:17:06;;;;;;;29.30;14.35;;;;;;;-1.78;100.00;99900.13;4963235;28;20398;-75
2023/12/05 02:19:49;;;;;;;31.27;12.68;;;;;;;-1.78;100.00;99891.44;4964639;28;20486;-75
2023/12/05 02:22:28;;;;;;;33.40;12.15;;;;;;;-1.72;100.00;99915.41;4965282;28;20042;-75
2023/12/05 02:25:07;;;;;;;27.58;12.38;;;;;;;-1.79;100.00;99890.59;4975746;28;20054;-75
2023/12/05 02:27:38;;;;;;;26.00;11.50;;;;;;;-1.71;100.00;99904.00;4967378;28;20031;-75
2023/12/05 02:30:04;;;;;;;26.48;11.63;;;;;;;-1.83;100.00;99860.34;4966461;28;20046;-75
2023/12/05 02:32:29;;;;;;;24.75;12.07;;;;;;;-1.77;100.00;99880.03;4955960;28;20560;-74
2023/12/05 02:34:55;;;;;;;;;;;;;;;-1.79;100.00;99887.97;4966758;28;20043;-74
2023/12/05 02:37:29;;;;;;;25.33;12.35;;;;;;;-1.90;100.00;99864.31;4962843;28;19957;-75
2023/12/05 02:40:07;;;;;;;27.85;13.05;;;;;;;-1.86;100.00;99888.50;4959498;28;20081;-75
2023/12/05 02:42:33;;;;;;;26.38;13.07;;;;;;;-1.70;100.00;99915.31;4965574;28;20042;-76
2023/12/05 02:45:02;;;;;;;27.05;12.57;;;;;;;-1.79;100.00;99893.22;4967510;28;20048;-74
2023/12/05 02:47:30;;;;;;;32.45;12.60;;;;;;;-1.71;100.00;99905.75;4965718;28;20473;-75
2023/12/05 02:49:56;;;;;;;28.88;12.55;;;;;;;-1.64;100.00;99919.28;4966191;28;20042;-75
2023/12/05 02:52:22;;;;;;;25.45;12.32;;;;;;;-1.73;100.00;99907.69;4946626;28;20105;-74
2023/12/05 02:54:48;;;;;;;;;;;;;;;-1.85;100.00;99893.66;4958872;28;20034;-74
2023/12/05 02:57:14;;;;;;;26.13;12.82;;;;;;;-1.79;100.00;99926.41;4967165;28;19959;-76
2023/12/05 02:59:39;;;;;;;;;;;;;;;-1.82;100.00;99935.28;4967653;28;20128;-75
2023/12/05 03:02:04;;;;;;;30.98;13.80;;;;;;;-1.90;100.00;99919.25;4967150;28;20304;-74
2023/12/05 03:04:30;;;;;;;29.48;12.27;;;;;;;-1.68;100.00;99957.09;4963880;28;20050;-75
2023/12/05 03:06:55;;;;;;;28.00;12.70;;;;;;;-1.78;100.00;99912.34;4947508;28;20565;-75
2023/12/05 03:09:21;;;;;;;;;;;;;;;-1.64;100.00;99930.59;4965973;28;20120;-73
2023/12/05 03:11:46;;;;;;;34.95;15.50;;;;;;;-1.72;100.00;99899.69;4966273;28;19972;-74
2023/12/05 03:14:30;;;;;;;27.65;12.23;;;;;;;-1.84;100.00;99871.75;4956154;28;20201;-74
2023/12/05 03:17:14;;;;;;;27.00;11.95;;;;;;;-1.86;100.00;99872.81;4961295;28;20054;-74
2023/12/05 03:19:59;;;;;;;26.42;12.25;;;;;;;-1.82;100.00;99892.59;4960880;28;20073;-75
2023/12/05 03:22:43;;;;;;;32.42;13.60;;;;;;;-1.88;100.00;99885.16;4965590;28;20133;-75
2023/12/05 03:25:27;;;;;;;27.25;13.30;;;;;;;-1.79;100.00;99919.38;4959237;28;20057;-75
2023/12/05 03:28:11;;;;;;;33.40;13.27;;;;;;;-1.82;100.00;99919.59;4973502;28;20104;-73
2023/12/05 03:30:54;;;;;;;31.95;13.48;;;;;;;-1.92;100.00;99905.44;4967129;28;20398;-74
2023/12/05 03:33:39;;;;;;;30.90;15.25;;;;;;;-1.80;100.00;99930.81;4966673;28;20053;-74
2023/12/05 03:36:23;;;;;;;34.03;15.40;;;;;;;-2.11;100.00;99879.69;4963358;28;20133;-75
2023/12/05 03:39:07;;;;;;;34.38;13.80;;;;;;;-1.98;100.00;99926.78;4969114;28;20053;-75
2023/12/05 03:41:51;;;;;;;30.30;14.32;;;;;;;-1.97;100.00;99929.31;4969428;28;20069;-73
2023/12/05 03:44:35;;;;;;;33.83;15.95;;;;;;;-1.98;100.00;99929.41;4969562;28;20417;-74
2023/12/05 03:47:19;;;;;;;37.05;14.52;;;;;;;-1.81;100.00;99955.28;4946464;28;20043;-73
2023/12/05 03:50:03;;;;;;;32.38;14.27;;;;;;;-1.84;100.00;99921.47;4964681;28;20097;-75
2023/12/05 03:52:47;;;;;;;32.08;14.70;;;;;;;-2.01;100.00;99893.84;4970086;28;20050;-75
2023/12/05 03:55:34;;;;;;;28.17;13.75;;;;;;;-2.09;100.00;99893.50;4970499;28;20770;-73
2023/12/05 03:58:18;;;;;;;33.63;14.68;;;;;;;-1.99;100.00;99943.41;4970247;28;20429;-73
2023/12/05 04:01:02;;;;;;;34.38;15.38;;;;;;;-1.84;100.00;99971.19;4969731;28;20049;-75
2023/12/05 04:03:46;;;;;;;34.47;16.20;;;;;;;-2.19;100.00;99897.69;4969450;28;20045;-75
2023/12/05 04:06:30;;;;;;;37.20;15.82;;;;;;;-2.05;100.00;99946.47;4966898;28;20498;-75
2023/12/05 04:09:14;;;;;;;36.78;17.13;;;;;;;-2.18;100.00;99928.97;4962468;28;20528;-74
2023/12/05 04:11:58;;;;;;;44.45;18.73;;;;;;;-2.24;100.00;99937.22;4963240;28;20122;-76
2023/12/05 04:14:42;;;;;;;39.70;18.15;;;;;;;-2.17;100.00;99969.84;4968862;28;20049;-75
2023/12/05 04:17:26;;;;;;;42.85;17.17;;;;;;;-2.12;100.00;100001.78;4967345;28;20062;-74
2023/12/05 04:20:11;;;;;;;38.20;18.85;;;;;;;-2.12;100.00;99986.09;4951729;28;20124;-75
2023/12/05 04:22:55;;;;;;;37.53;17.02;;;;;;;-2.14;100.00;99993.19;4969519;28;20042;-75
2023/12/05 04:25:39;;;;;;;44.33;20.50;;;;;;;-2.12;100.00;100011.41;4968747;28;20053;-75
2023/12/05 04:28:23;;;;;;;39.63;18.95;;;;;;;-2.07;100.00;100021.56;4969994;28;20041;-76
2023/12/05 04:31:07;;;;;;;37.70;16.77;;;;;;;-2.15;100.00;100002.00;4968889;28;20053;-73
2023/12/05 04:33:51;;;;;;;46.63;20.05;;;;;;;-2.33;100.00;99982.25;4969229;28;20125;-74
2023/12/05 04:36:35;;;;;;;40.58;17.00;;;;;;;-2.18;100.00;100028.34;4968373;28;20613;-74
2023/12/05 04:39:19;;;;;;;43.65;18.95;;;;;;;-2.20;100.00;100006.69;4969972;28;20041;-75
2023/12/05 04:42:04;;;;;;;42.17;19.13;;;;;;;-2.03;100.00;100041.38;4968760;28;20115;-76
2023/12/05 04:44:48;;;;;;;44.60;18.42;;;;;;;-2.26;100.00;99982.69;4952092;28;20049;-74
2023/12/05 04:47:32;;;;;;;44.47;19.80;;;;;;;-2.20;100.00;99993.59;4958015;28;20082;-74
2023/12/05 04:50:16;;;;;;;43.35;19.48;;;;;;;-2.23;100.00;99978.09;4969549;28;20521;-74
2023/12/05 04:53:00;;;;;;;41.63;18.15;;;;;;;-2.28;100.00;99974.94;4966921;28;20829;-75
2023/12/05 04:55:44;;;;;;;41.15;17.90;;;;;;;-2.21;100.00;100001.53;4966784;28;20069;-75
2023/12/05 04:58:28;;;;;;;42.20;18.13;;;;;;;-2.38;100.00;99963.41;4961550;28;20093;-75
2023/12/05 05:01:12;;;;;;;46.72;19.70;;;;;;;-2.36;100.00;99991.13;4962680;28;20053;-74
2023/12/05 05:03:56;;;;;;;46.75;20.45;;;;;;;-2.39;100.00;99974.78;4961677;28;20453;-73
2023/12/05 05:06:21;;;;;;;37.88;17.73;;;;;;;-2.23;100.00;100004.25;4968686;28;20137;-73
2023/12/05 05:08:47;;;;;;;;;;;;;;;-2.29;100.00;99998.59;4967985;28;20050;-74
2023/12/05 05:11:12;;;;;;;41.40;18.67;;;;;;;-2.12;100.00;100030.56;4964411;28;19910;-74
2023/12/05 05:13:37;;;;;;;;;;;;;;;-2.33;100.00;99985.69;4965548;28;20034;-75
2023/12/05 05:16:03;;;;;;;52.53;19.50;;;;;;;-2.36;100.00;99995.53;4964426;28;19914;-75
2023/12/05 05:18:28;;;;;;;;;;;;;;;-2.29;100.00;100015.13;4949154;28;20134;-75
2023/12/05 05:20:54;;;;;;;48.53;20.92;;;;;;;-2.27;100.00;100000.16;4959756;28;19909;-75
2023/12/05 05:23:19;;;;;;;47.72;21.45;;;;;;;-2.17;100.00;100014.31;4967096;28;20135;-74
2023/12/05 05:25:45;;;;;;;;;;;;;;;-2.19;100.00;100013.56;4968573;28;20023;-75
2023/12/05 05:28:10;;;;;;;46.75;19.92;;;;;;;-2.19;100.00;100004.91;4966836;28;19929;-75
2023/12/05 05:30:35;;;;;;;;;;;;;;;-2.16;100.00;100028.22;4949205;28;20039;-75
2023/12/05 05:33:01;;;;;;;49.00;21.02;;;;;;;-2.33;100.00;99993.53;4968091;28;19914;-73
2023/12/05 05:35:26;;;;;;;48.15;20.92;;;;;;;-2.24;100.00;100018.28;4965442;28;20069;-73
2023/12/05 05:37:51;;;;;;;;;;;;;;;-2.03;100.00;100041.38;4956171;28;20113;-75
2023/12/05 05:40:17;;;;;;;49.57;20.17;;;;;;;-2.07;100.00;100022.41;4963962;28;19965;-75
2023/12/05 05:42:43;;;;;;;48.47;21.88;;;;;;;-2.18;100.00;99990.88;4973251;28;20153;-75
2023/12/05 05:45:09;;;;;;;44.97;21.27;;;;;;;-2.26;100.00;99980.91;4968288;28;20059;-75
2023/12/05 05:47:34;;;;;;;45.30;20.02;;;;;;;-2.27;100.00;99971.41;4948006;28;20075;-74
2023/12/05 05:50:00;;;;;;;48.95;21.23;;;;;;;-2.16;100.00;100015.97;4968038;28;20069;-75
2023/12/05 05:52:25;;;;;;;49.25;22.45;;;;;;;-2.05;100.00;100022.31;4967752;28;20094;-75
2023/12/05 05:54:50;;;;;;;;;;;;;;;-2.07;100.00;99995.41;4950854;28;20054;-75
2023/12/05 05:57:16;;;;;;;46.88;20.92;;;;;;;-2.15;100.00;99986.28;4967934;28;19924;-73
2023/12/05 05:59:44;;;;;;;;;;;;;;;-2.07;100.00;99992.81;4949316;28;20047;-74
2023/12/05 06:02:13;;;;;;;45.70;23.08;;;;;;;-2.22;100.00;99958.03;4962749;28;19980;-74
2023/12/05 06:04:42;;;;;;;48.38;21.48;;;;;;;-2.28;100.00;99961.03;4965790;28;20118;-75
2023/12/05 06:07:08;;;;;;;47.65;21.52;;;;;;;-2.35;100.00;99963.22;4967727;28;20038;-75
2023/12/05 06:09:34;;;;;;;49.10;21.83;;;;;;;-2.18;100.00;99996.97;4966446;28;20042;-74
2023/12/05 06:11:59;;;;;;;;;;;;;;;-2.09;100.00;100005.97;4967859;28;20023;-75
2023/12/05 06:14:24;;;;;;;50.70;20.67;;;;;;;-2.05;100.00;100011.84;4982509;28;19917;-76
2023/12/05 06:16:50;;;;;;;48.72;22.00;;;;;;;-2.20;100.00;99993.59;4967415;28;20897;-74
2023/12/05 06:19:16;;;;;;;;;;;;;;;-1.99;100.00;100021.91;4947403;28;20090;-74
2023/12/05 06:21:42;;;;;;;52.47;21.08;;;;;;;-2.15;100.00;100003.78;4964641;28;19924;-75
2023/12/05 06:24:08;;;;;;;54.28;21.88;;;;;;;-2.02;100.00;100011.66;4966074;28;20026;-76
2023/12/05 06:26:34;;;;;;;50.10;22.10;;;;;;;-2.01;100.00;100006.31;4963523;28;20645;-76
2023/12/05 06:29:01;;;;;;;49.15;21.85;;;;;;;-1.96;100.00;100004.25;4946994;28;20041;-75
2023/12/05 06:31:26;;;;;;;45.03;21.25;;;;;;;-2.00;100.00;99991.47;4963393;28;20031;-73
2023/12/05 06:33:53;;;;;;;51.03;23.60;;;;;;;-1.93;100.00;100014.50;4949682;28;20096;-75
2023/12/05 06:36:18;;;;;;;49.03;22.10;;;;;;;-2.18;100.00;99976.03;4967072;28;20038;-76
2023/12/05 06:38:44;;;;;;;44.13;21.48;;;;;;;-2.02;100.00;100016.88;4967160;28;20239;-75
2023/12/05 06:41:09;;;;;;;48.95;22.73;;;;;;;-1.97;100.00;100040.97;4946295;28;20074;-75
2023/12/05 06:43:34;;;;;;;;;;;;;;;-1.97;100.00;100030.50;4964372;28;20035;-73
2023/12/05 06:46:00;;;;;;;55.43;23.53;;;;;;;-2.15;100.00;100025.53;4958571;28;20529;-74
2023/12/05 06:48:25;;;;;;;52.03;22.00;;;;;;;-2.18;100.00;100023.13;4965807;28;21147;-75
2023/12/05 06:50:51;;;;;;;52.95;22.25;;;;;;;-2.20;100.00;100024.13;4965742;28;20382;-73
2023/12/05 06:53:16;;;;;;;;;;;;;;;-2.02;100.00;100074.44;4950145;28;20096;-74
2023/12/05 06:55:42;;;;;;;57.60;25.07;;;;;;;-2.23;100.00;100051.31;4967274;28;19964;-75
2023/12/05 06:58:07;;;;;;;;;;;;;;;-2.15;100.00;100106.59;4947508;28;20035;-75
2023/12/05 07:00:32;;;;;;;56.25;25.02;;;;;;;-2.13;100.00;100127.44;4963069;28;19917;-75
2023/12/05 07:02:58;;;;;;;;;;;;;;;-2.12;100.00;100145.63;4962788;28;20035;-75
2023/12/05 07:05:23;;;;;;;54.37;24.50;;;;;;;-2.23;100.00;100149.84;4962192;28;19914;-75
2023/12/05 07:07:48;;;;;;;;;;;;;;;-2.08;100.00;100200.38;4967274;28;20066;-75
2023/12/05 07:10:14;;;;;;;66.93;30.63;;;;;;;-2.22;100.00;100201.25;4965957;28;19914;-75
2023/12/05 07:12:39;;;;;;;;;;;;;;;-2.10;100.00;100241.50;4965353;28;20085;-74
2023/12/05 07:15:05;;;;;;;62.40;28.87;;;;;;;-2.12;100.00;100249.44;4966990;28;20008;-74
2023/12/05 07:17:30;;;;;;;72.40;28.67;;;;;;;-2.02;100.00;100275.88;4957516;28;21025;-75
2023/12/05 07:19:55;;;;;;;77.32;28.52;;;;;;;-2.17;100.00;100257.56;4965572;28;20035;-73
2023/12/05 07:22:21;;;;;;;;;;;;;;;-2.31;100.00;100251.47;4965654;28;20042;-73
2023/12/05 07:24:46;;;;;;;67.10;28.40;;;;;;;-2.35;100.00;100248.19;4966501;28;19984;-73
2023/12/05 07:27:11;;;;;;;73.72;31.40;;;;;;;-2.20;100.00;100281.28;4968609;28;20039;-75
2023/12/05 07:29:37;;;;;;;;;;;;;;;-2.09;100.00;100298.94;4969827;28;20118;-74
2023/12/05 07:32:02;;;;;;;68.27;28.00;;;;;;;-2.40;100.00;100268.56;4982099;28;20436;-75
2023/12/05 07:34:27;;;;;;;;;;;;;;;-2.52;100.00;100254.44;4966023;28;20498;-75
2023/12/05 07:36:53;;;;;;;;;;;;;;;-2.23;100.00;100304.16;4965810;28;20373;-75
2023/12/05 07:39:18;;;;;;;73.67;30.83;;;;;;;-2.44;100.00;100288.78;4969390;28;19916;-76
2023/12/05 07:41:44;;;;;;;;;;;;;;;-2.25;100.00;100319.91;4950018;28;20285;-75
2023/12/05 07:44:10;;;;;;;78.50;32.45;;;;;;;-2.24;100.00;100305.94;4973153;28;19913;-75
2023/12/05 07:46:35;;;;;;;69.85;30.90;;;;;;;-2.50;100.00;100278.72;4965469;28;20050;-74
2023/12/05 07:49:02;;;;;;;77.10;35.35;;;;;;;-2.43;100.00;100294.88;4973866;28;20515;-73
2023/12/05 07:51:27;;;;;;;76.13;33.25;;;;;;;-2.38;100.00;100295.47;4965303;28;20143;-75
2023/12/05 07:53:53;;;;;;;79.47;32.65;;;;;;;-2.44;100.00;100303.66;4963843;28;20042;-76
2023/12/05 07:56:18;;;;;;;;;;;;;;;-2.41;100.00;100295.63;4951169;28;20034;-75
2023/12/05 07:58:44;;;;;;;83.25;34.45;;;;;;;-2.73;100.00;100267.00;4962797;28;20281;-74
2023/12/05 08:01:09;;;;;;;;;;;;;;;-2.49;100.00;100316.16;4946684;28;20051;-74
2023/12/05 08:03:34;;;;;;;83.78;33.50;;;;;;;-2.28;100.00;100338.41;4961883;28;19914;-75
2023/12/05 08:06:03;;;;;;;;;;;;;;;-2.33;100.00;100327.41;4966075;28;20035;-75
2023/12/05 08:08:34;;;;;;;85.75;36.05;;;;;;;-2.49;100.00;100310.94;4965326;28;19916;-75
2023/12/05 08:11:00;;;;;;;86.88;38.92;;;;;;;-2.30;100.00;100329.81;4962326;28;20050;-75
2023/12/05 08:13:26;;;;;;;71.25;33.35;;;;;;;-2.53;100.00;100307.63;4961898;28;20034;-76
2023/12/05 08:15:53;;;;;;;83.90;37.47;;;;;;;-2.41;100.00;100324.38;4949501;28;20436;-75
2023/12/05 08:18:18;;;;;;;78.45;34.63;;;;;;;-2.28;100.00;100343.66;4963566;28;20501;-74
2023/12/05 08:20:44;;;;;;;89.70;37.05;;;;;;;-2.33;100.00;100328.22;4960770;28;20046;-74
2023/12/05 08:23:09;;;;;;;;;;;;;;;-2.33;100.00;100327.41;4965123;28;20601;-75
2023/12/05 08:25:35;;;;;;;94.57;37.17;;;;;;;-2.36;100.00;100310.13;4967626;28;20465;-76
2023/12/05 08:28:00;;;;;;;82.55;34.03;;;;;;;-2.25;100.00;100335.63;4968593;28;20517;-74
2023/12/05 08:30:25;;;;;;;;;;;;;;;-2.57;100.00;100298.31;4969345;28;20430;-74
2023/12/05 08:32:50;;;;;;;80.33;34.77;;;;;;;-2.25;100.00;100337.41;4956369;28;19929;-73
2023/12/05 08:35:16;;;;;;;;;;;;;;;-2.32;100.00;100326.44;4970114;28;20482;-73
2023/12/05 08:37:41;;;;;;;91.27;36.60;;;;;;;-2.20;100.00;100341.44;4969433;28;19918;-74
2023/12/05 08:40:08;;;;;;;88.85;35.55;;;;;;;-2.31;100.00;100333.38;4969762;28;20378;-74
2023/12/05 08:42:33;;;;;;;86.93;37.67;;;;;;;-2.22;100.00;100347.69;4969340;28;20082;-72
2023/12/05 08:44:59;;;;;;;84.32;39.10;;;;;;;-2.08;100.00;100341.63;4968228;28;20441;-75
2023/12/05 08:47:24;;;;;;;93.28;39.20;;;;;;;-2.03;100.00;100345.66;4963876;28;20035;-74
2023/12/05 08:49:49;;;;;;;;;;;;;;;-2.15;100.00;100317.63;4967752;28;20351;-75
2023/12/05 08:52:15;;;;;;;86.37;41.03;;;;;;;-2.40;100.00;100302.53;4969304;28;19944;-75
2023/12/05 08:54:40;;;;;;;87.97;41.40;;;;;;;-2.25;100.00;100314.69;4968096;28;20069;-73
2023/12/05 08:57:05;;;;;;;;;;;;;;;-2.00;100.00;100336.78;4968495;28;20047;-73
2023/12/05 08:59:31;;;;;;;88.63;37.07;;;;;;;-2.22;100.00;100314.53;4969304;28;19924;-72
2023/12/05 09:01:56;;;;;;;99.60;40.30;;;;;;;-2.28;100.00;100303.59;4967800;28;20129;-74
2023/12/05 09:04:21;;;;;;;;;;;;;;;-2.15;100.00;100330.72;4949346;28;20043;-75
2023/12/05 09:06:46;;;;;;;95.70;38.50;;;;;;;-2.31;100.00;100309.84;4964714;28;19914;-74
2023/12/05 09:09:12;;;;;;;;;;;;;;;-2.40;100.00;100310.38;4965424;28;20042;-75
2023/12/05 09:11:38;;;;;;;85.93;37.83;;;;;;;-2.26;100.00;100339.19;4964779;28;19924;-75
2023/12/05 09:14:05;;;;;;;88.05;39.22;;;;;;;-2.32;100.00;100329.06;4948708;28;20039;-76
2023/12/05 09:16:31;;;;;;;90.32;39.58;;;;;;;-2.20;100.00;100343.19;4961191;28;20486;-73
2023/12/05 09:18:56;;;;;;;;;;;;;;;-2.15;100.00;100351.63;4951598;28;20034;-74
2023/12/05 09:21:22;;;;;;;92.55;37.65;;;;;;;-2.10;100.00;100353.97;4962669;28;19909;-74
2023/12/05 09:23:47;;;;;;;105.43;41.40;;;;;;;-2.16;100.00;100342.91;4968785;28;20031;-75
2023/12/05 09:26:13;;;;;;;89.25;39.90;;;;;;;-2.03;100.00;100342.22;4968923;28;20038;-75
2023/12/05 09:28:39;;;;;;;86.45;38.25;;;;;;;-2.15;100.00;100336.78;4977028;28;20315;-75
2023/12/05 09:31:04;;;;;;;;;;;;;;;-2.20;100.00;100338.81;4968052;28;20077;-75
2023/12/05 09:33:29;;;;;;;85.70;35.60;;;;;;;-2.08;100.00;100344.22;4964379;28;19914;-75
2023/12/05 09:35:55;;;;;;;;;;;;;;;-2.03;100.00;100339.59;4966632;28;20039;-76
2023/12/05 09:38:20;;;;;;;91.60;41.65;;;;;;;-1.97;100.00;100341.81;4968735;28;20005;-75
2023/12/05 09:40:47;;;;;;;95.63;41.40;;;;;;;-2.05;100.00;100328.38;4968669;28;20050;-73
2023/12/05 09:43:14;;;;;;;96.88;42.85;;;;;;;-1.96;100.00;100340.91;4948180;28;20047;-76
2023/12/05 09:45:43;;;;;;;82.47;37.45;;;;;;;-1.87;100.00;100344.72;4964737;28;20026;-75
2023/12/05 09:48:11;;;;;;;94.15;41.05;;;;;;;-1.94;100.00;100318.94;4955803;28;20121;-76
2023/12/05 09:50:37;;;;;;;92.75;39.80;;;;;;;-1.77;100.00;100340.63;4968510;28;20457;-75
2023/12/05 09:53:03;;;;;;;;;;;;;;;-1.80;100.00;100335.59;4951351;28;20041;-76
2023/12/05 09:55:29;;;;;;;95.63;40.63;;;;;;;-2.02;100.00;100310.69;4974564;28;20012;-76
2023/12/05 09:57:57;;;;;;;98.05;41.65;;;;;;;-1.89;100.00;100330.91;4969129;28;20481;-76
2023/12/05 10:00:23;;;;;;;92.25;42.47;;;;;;;-2.01;100.00;100324.66;4967368;28;20421;-75
2023/12/05 10:02:51;;;;;;;94.45;39.13;;;;;;;-1.95;100.00;100326.88;4951066;28;20039;-75
2023/12/05 10:05:20;;;;;;;90.50;38.20;;;;;;;-1.82;100.00;100340.91;4952887;28;20031;-75
2023/12/05 10:07:46;;;;;;;100.80;43.55;;;;;;;-2.02;100.00;100321.16;4948371;28;20042;-75
2023/12/05 10:10:13;;;;;;;88.88;41.95;;;;;;;-1.84;100.00;100339.31;4968091;28;20130;-74
2023/12/05 10:12:40;;;;;;;88.03;40.42;;;;;;;-1.97;100.00;100320.91;4966312;28;20038;-75
2023/12/05 10:15:06;;;;;;;96.40;40.63;;;;;;;-1.84;100.00;100334.94;4966526;28;20031;-75
2023/12/05 10:17:33;;;;;;;;;;;;;;;-1.84;100.00;100327.06;4966835;28;20429;-74
2023/12/05 10:19:59;;;;;;;91.32;39.58;;;;;;;-1.78;100.00;100325.84;4966438;28;19914;-75
2023/12/05 10:22:30;;;;;;;91.53;40.55;;;;;;;-1.91;100.00;100313.50;4961506;28;20035;-75
2023/12/05 10:24:56;;;;;;;87.85;39.83;;;;;;;-1.72;100.00;100318.47;4967747;28;20514;-74
2023/12/05 10:27:21;;;;;;;97.55;41.08;;;;;;;-1.71;100.00;100319.28;4960978;28;20037;-75
2023/12/05 10:29:46;;;;;;;91.60;38.40;;;;;;;-1.61;100.00;100314.38;4966327;28;20042;-75
2023/12/05 10:32:13;;;;;;;86.32;37.75;;;;;;;-1.88;100.00;100296.78;4967363;28;20070;-73
2023/12/05 10:34:53;;;;;;;95.22;40.30;;;;;;;-1.71;100.00;100314.06;4967877;28;20043;-75
2023/12/05 10:37:23;;;;;;;85.47;38.45;;;;;;;-1.54;100.00;100328.75;4973484;28;20039;-75
2023/12/05 10:39:52;;;;;;;92.97;39.17;;;;;;;-1.48;100.00;100310.03;4964233;28;20031;-75
2023/12/05 10:42:19;;;;;;;87.38;39.55;;;;;;;-1.54;100.00;100311.25;4947227;28;20042;-76
2023/12/05 10:44:45;;;;;;;84.70;36.50;;;;;;;-1.79;100.00;100284.91;4969851;28;20086;-74
2023/12/05 10:47:11;;;;;;;90.15;40.08;;;;;;;-1.56;100.00;100314.91;4947020;28;20035;-75
2023/12/05 10:49:41;;;;;;;82.93;38.97;;;;;;;-1.57;100.00;100300.13;4963833;28;20453;-75
2023/12/05 10:52:08;;;;;;;77.50;35.13;;;;;;;-1.49;100.00;100308.34;4966242;28;20040;-75
2023/12/05 10:54:33;;;;;;;91.47;38.38;;;;;;;-1.55;100.00;100287.78;4962934;28;20397;-76
2023/12/05 10:56:59;;;;;;;86.45;36.60;;;;;;;-1.46;100.00;100291.59;4967396;28;20027;-76
2023/12/05 10:59:28;;;;;;;79.75;36.10;;;;;;;-1.31;100.00;100299.34;4967649;28;20046;-75
2023/12/05 11:01:58;;;;;;;85.43;36.92;;;;;;;-1.38;100.00;100284.97;4949875;28;20117;-76
2023/12/05 11:04:27;;;;;;;89.45;36.72;;;;;;;-1.35;100.00;100278.69;4960743;28;20134;-76
2023/12/05 11:06:53;;;;;;;84.65;35.80;;;;;;;-1.44;100.00;100272.25;4967275;28;20026;-75
2023/12/05 11:09:19;;;;;;;82.25;39.85;;;;;;;-1.54;100.00;100265.91;4947107;28;20054;-75
2023/12/05 11:11:50;;;;;;;79.90;37.67;;;;;;;-1.46;100.00;100268.88;4966702;28;20137;-74
2023/12/05 11:14:19;;;;;;;93.22;36.92;;;;;;;-1.28;100.00;100280.81;4961181;28;20035;-73
2023/12/05 11:16:53;;;;;;;80.60;35.97;;;;;;;-1.42;100.00;100269.53;4947362;28;20035;-75
2023/12/05 11:19:41;;;;;;;78.07;37.22;;;;;;;-1.53;100.00;100254.50;4956938;28;20031;-75
2023/12/05 11:22:10;;;;;;;81.47;36.10;;;;;;;-1.53;100.00;100260.56;4958133;28;20398;-75
2023/12/05 11:25:02;;;;;;;85.30;36.40;;;;;;;-1.52;100.00;100271.91;4967155;28;20030;-74
2023/12/05 11:27:43;;;;;;;80.43;37.03;;;;;;;-1.59;100.00;100253.13;4946709;28;20094;-75